Lafayette, IN

3:37 PM EDT on August 03, 2015 (GMT -0400)
Purdue Univ | | Change Station
CLOSE
Current Station
Airport
Location: Lafayette,
Elevation: 604 ft
Nearby Weather Stations
Active Advisory: Flood Warning

Elev 604 ft 40.41 °N, 86.93 °W | Updated 43 minutes ago

Partly Cloudy
Partly Cloudy
84 °F
Feels Like 86 °F
N
8
Wind Variable Wind from NW

Today
High -- | Low -- °F
--% Chance of Precip.
Yesterday
High -- | Low -- °F
Precip. -- in
6:46 AM 9:00 PM
Waning Gibbous, 84% visible
Pressure 29.84 in
Visibility 10.0 miles
Clouds Scattered Clouds 5000 ft
Heat Index 86 °F
Dew Point 66 °F
Humidity 55%
Rainfall 0.06 in
Snow Depth Not available.
UV 8 out of 12
Pollen 7.40 out of 12
Air Quality Not available.
Flu Activity Not available.
METAR KLAF 031854Z 31007KT 10SM SCT050 29/19 A2985 RMK AO2 SLP103 T02890189

More Conditions Fewer Conditions

Pressure 29.84 in
Visibility 10.0 miles
Clouds Scattered Clouds 5000 ft
Heat Index 86 °F
Dew Point 66 °F
Humidity 55%
Rainfall 0.06 in
Snow Depth Not available.
UV 8 out of 12
Pollen 7.40 out of 12
Air Quality Not available.
Flu Activity Not available.
METAR KLAF 031854Z 31007KT 10SM SCT050 29/19 A2985 RMK AO2 SLP103 T02890189

More Conditions Fewer Conditions

10-Day Weather Forecast

×

Almanac

Astronomy

Aug. 03, 2015 Rise Set
Actual Time
Civil Twilight
Nautical Twilight
Astronomical Twilight
Moon
Length of Visible Light
Length of Day
Tomorrow will be .
, % of the Moon is Illuminated

Today's Extremes

State Highs State Lows

Community

WunderPhotos

Upload Photos

1,843,714 photos uploaded!

WunderBlogs® & News

Nearby

Air Quality

  Air Quality AQ Index Pollutant
Not available.

Snow Depth

Station Depth Elevation

Earthquake Activity

City Distance Mag. Time & Date
Minimum magnitude displayed is 2.5.

Coastal Water Temperatures

Place Temperature

Stations

Nearby Weather Stations

Station Location Temp. Windchill Dew Point Humidity Wind Precip. Elev Updated Type
                   
Flood Warning
Statement as of 10:26 AM EDT on August 03, 2015

The Flood Warning continues for
the Wabash River at Lafayette.
* Until late Wednesday night.
* At 10:01 am Monday the stage was 11.8 feet.
* Flood stage is 11.0 feet.
* Minor flooding is occurring and minor flooding is forecast.
* Forecast... the river will continue rising to near 11.9 feet by this
afternoon. The river will fall below flood stage Wednesday
afternoon.
* At 12.0 feet... high water affects a few low river Cabins and County
roads.


Lat... Lon 4056 8673 4048 8688 4040 8709 4033 8709
      4040 8688 4054 8670